Time,TemperatureF,DewpointF,PressureIn,WindDirection,WindDirectionDegrees,WindSpeedMPH,WindSpeedGustMPH,Humidity,HourlyPrecipIn,Conditions,Clouds,dailyrainin,SoftwareType,DateUTC
2013-02-02 00:00:00,52.6,37.8,30.26,North,351,2.0,2.0,57,0.00,,SKC,0.00,VWS V14.01,2013-02-02 05:00:00,
2013-02-02 00:01:00,52.6,37.8,30.26,NNW,345,1.0,1.0,57,0.00,,SKC,0.00,VWS V14.01,2013-02-02 05:01:00,
2013-02-02 00:06:00,52.5,38.2,30.26,North,350,1.0,3.0,58,0.00,,SKC,0.00,VWS V14.01,2013-02-02 05:06:00,
2013-02-02 00:11:00,52.6,38.3,30.26,NNE,13,2.0,3.0,58,0.00,,SKC,0.00,VWS V14.01,2013-02-02 05:11:00,
2013-02-02 00:16:00,52.7,38.3,30.25,North,5,2.0,4.0,58,0.00,,SKC,0.00,VWS V14.01,2013-02-02 05:16:00,
2013-02-02 00:21:00,52.6,37.8,30.25,NNE,21,1.0,4.0,57,0.00,,SKC,0.00,VWS V14.01,2013-02-02 05:21:00,
2013-02-02 00:26:00,52.5,38.2,30.25,NNE,14,0.0,4.0,58,0.00,,SKC,0.00,VWS V14.01,2013-02-02 05:26:00,
2013-02-02 00:31:00,52.4,38.1,30.25,North,11,0.0,1.0,58,0.00,,SKC,0.00,VWS V14.01,2013-02-02 05:31:00,
2013-02-02 00:36:00,52.2,38.3,30.25,NNE,24,1.0,1.0,59,0.00,,SKC,0.00,VWS V14.01,2013-02-02 05:36:00,
2013-02-02 00:41:00,52.1,38.2,30.25,NNE,19,1.0,2.0,59,0.00,,SKC,0.00,VWS V14.01,2013-02-02 05:41:00,
2013-02-02 00:46:00,52.0,38.6,30.25,North,5,1.0,4.0,60,0.00,,SKC,0.00,VWS V14.01,2013-02-02 05:46:00,
2013-02-02 00:51:00,52.0,38.6,30.25,NNW,345,2.0,4.0,60,0.00,,SKC,0.00,VWS V14.01,2013-02-02 05:51:00,
2013-02-02 00:56:00,51.9,38.9,30.25,North,351,0.0,4.0,61,0.00,,SKC,0.00,VWS V14.01,2013-02-02 05:56:00,
2013-02-02 01:01:00,51.7,39.1,30.25,North,350,2.0,2.0,62,0.00,,SKC,0.00,VWS V14.01,2013-02-02 06:01:00,
2013-02-02 01:06:00,51.6,39.0,30.25,North,11,1.0,2.0,62,0.00,,SKC,0.00,VWS V14.01,2013-02-02 06:06:00,
2013-02-02 01:11:00,51.4,39.2,30.25,NNW,347,0.0,2.0,63,0.00,,SKC,0.00,VWS V14.01,2013-02-02 06:11:00,
2013-02-02 01:16:00,51.3,39.2,30.25,NNE,26,1.0,2.0,63,0.00,,SKC,0.00,VWS V14.01,2013-02-02 06:16:00,
2013-02-02 01:21:00,51.1,39.0,30.25,NNE,26,0.0,2.0,63,0.00,,SKC,0.00,VWS V14.01,2013-02-02 06:21:00,
2013-02-02 01:26:00,50.8,39.1,30.25,NNE,26,0.0,2.0,64,0.00,,SKC,0.00,VWS V14.01,2013-02-02 06:26:00,
2013-02-02 01:31:00,50.5,38.8,30.25,NNE,26,0.0,0.0,64,0.00,,SKC,0.00,VWS V14.01,2013-02-02 06:31:00,
2013-02-02 01:36:00,50.0,39.5,30.25,NNE,26,0.0,0.0,67,0.00,,SKC,0.00,VWS V14.01,2013-02-02 06:36:00,
2013-02-02 01:41:00,49.9,39.4,30.24,NNE,26,0.0,0.0,67,0.00,,SKC,0.00,VWS V14.01,2013-02-02 06:41:00,
2013-02-02 01:46:00,49.9,39.4,30.24,North,11,1.0,1.0,67,0.00,,SKC,0.00,VWS V14.01,2013-02-02 06:46:00,
2013-02-02 01:51:00,49.7,39.6,30.24,North,11,1.0,2.0,68,0.00,,SKC,0.00,VWS V14.01,2013-02-02 06:51:00,
2013-02-02 01:56:00,49.8,40.0,30.24,North,10,0.0,2.0,69,0.00,,SKC,0.00,VWS V14.01,2013-02-02 06:56:00,
2013-02-02 02:01:00,49.8,40.0,30.24,NNW,346,1.0,2.0,69,0.00,,SKC,0.00,VWS V14.01,2013-02-02 07:01:00,
2013-02-02 02:06:00,49.7,40.3,30.24,NNW,346,0.0,2.0,70,0.00,,SKC,0.00,VWS V14.01,2013-02-02 07:06:00,
2013-02-02 02:11:00,49.2,40.6,30.24,NW,311,1.0,5.0,72,0.00,,SKC,0.00,VWS V14.01,2013-02-02 07:11:00,
2013-02-02 02:16:00,49.3,40.3,30.24,NNE,24,6.0,6.0,71,0.00,,SKC,0.00,VWS V14.01,2013-02-02 07:16:00,
2013-02-02 02:21:00,49.6,39.1,30.24,NNW,342,4.0,7.0,67,0.00,,SKC,0.00,VWS V14.01,2013-02-02 07:21:00,
2013-02-02 02:26:00,49.7,38.4,30.24,NNE,32,4.0,7.0,65,0.00,,SKC,0.00,VWS V14.01,2013-02-02 07:26:00,
2013-02-02 02:31:00,49.6,38.3,30.24,NNE,21,4.0,4.0,65,0.00,,SKC,0.00,VWS V14.01,2013-02-02 07:31:00,
2013-02-02 02:36:00,49.5,38.2,30.24,NNW,332,2.0,5.0,65,0.00,,SKC,0.00,VWS V14.01,2013-02-02 07:36:00,
2013-02-02 02:41:00,49.4,38.1,30.24,NNE,16,4.0,6.0,65,0.00,,SKC,0.00,VWS V14.01,2013-02-02 07:41:00,
2013-02-02 02:46:00,49.3,37.7,30.24,NNE,21,2.0,6.0,64,0.00,,SKC,0.00,VWS V14.01,2013-02-02 07:46:00,
2013-02-02 02:51:00,49.2,37.6,30.24,NNW,344,1.0,6.0,64,0.00,,SKC,0.00,VWS V14.01,2013-02-02 07:51:00,
2013-02-02 02:56:00,49.1,37.5,30.24,NNW,342,4.0,6.0,64,0.00,,SKC,0.00,VWS V14.01,2013-02-02 07:56:00,
2013-02-02 03:01:00,49.1,37.5,30.24,NNW,348,5.0,6.0,64,0.00,,SKC,0.00,VWS V14.01,2013-02-02 08:01:00,
2013-02-02 03:06:00,49.3,37.2,30.23,NNW,338,4.0,6.0,63,0.00,,SKC,0.00,VWS V14.01,2013-02-02 08:06:00,
2013-02-02 03:11:00,49.3,36.8,30.23,NE,42,6.0,6.0,62,0.00,,SKC,0.00,VWS V14.01,2013-02-02 08:11:00,
2013-02-02 03:16:00,49.3,36.8,30.23,NNE,16,2.0,6.0,62,0.00,,SKC,0.00,VWS V14.01,2013-02-02 08:16:00,
2013-02-02 03:21:00,49.1,36.7,30.23,NNE,24,2.0,6.0,62,0.00,,SKC,0.00,VWS V14.01,2013-02-02 08:21:00,
2013-02-02 03:26:00,49.1,36.7,30.24,NNE,19,5.0,7.0,62,0.00,,SKC,0.00,VWS V14.01,2013-02-02 08:26:00,
2013-02-02 03:31:00,49.1,37.1,30.24,NNE,31,5.0,7.0,63,0.00,,SKC,0.00,VWS V14.01,2013-02-02 08:31:00,
2013-02-02 03:36:00,48.9,36.9,30.24,North,11,4.0,8.0,63,0.00,,SKC,0.00,VWS V14.01,2013-02-02 08:36:00,
2013-02-02 03:41:00,48.9,37.7,30.24,NNE,22,4.0,8.0,65,0.00,,SKC,0.00,VWS V14.01,2013-02-02 08:41:00,
2013-02-02 03:46:00,48.9,37.7,30.24,NNE,16,2.0,8.0,65,0.00,,SKC,0.00,VWS V14.01,2013-02-02 08:46:00,
2013-02-02 03:51:00,49.0,38.2,30.24,NNE,32,3.0,8.0,66,0.00,,SKC,0.00,VWS V14.01,2013-02-02 08:51:00,
2013-02-02 03:56:00,49.1,38.6,30.24,NNE,22,5.0,8.0,67,0.00,,SKC,0.00,VWS V14.01,2013-02-02 08:56:00,
2013-02-02 04:01:00,49.2,38.7,30.24,NNE,23,4.0,7.0,67,0.00,,SKC,0.00,VWS V14.01,2013-02-02 09:01:00,
2013-02-02 04:06:00,49.2,38.7,30.23,NNW,345,3.0,7.0,67,0.00,,SKC,0.00,VWS V14.01,2013-02-02 09:06:00,
2013-02-02 04:11:00,49.3,39.2,30.24,North,5,7.0,7.0,68,0.00,,SKC,0.00,VWS V14.01,2013-02-02 09:11:00,
2013-02-02 04:16:00,49.3,39.2,30.23,NW,323,2.0,7.0,68,0.00,,SKC,0.00,VWS V14.01,2013-02-02 09:16:00,
2013-02-02 04:21:00,49.3,39.2,30.24,North,5,2.0,7.0,68,0.00,,SKC,0.00,VWS V14.01,2013-02-02 09:21:00,
2013-02-02 04:26:00,49.2,39.5,30.24,NNW,327,1.0,7.0,69,0.00,,SKC,0.00,VWS V14.01,2013-02-02 09:26:00,
2013-02-02 04:31:00,49.1,39.4,30.24,WNW,282,0.0,3.0,69,0.00,,SKC,0.00,VWS V14.01,2013-02-02 09:31:00,
2013-02-02 04:36:00,49.0,39.7,30.24,NNW,331,0.0,5.0,70,0.00,,SKC,0.00,VWS V14.01,2013-02-02 09:36:00,
2013-02-02 04:41:00,48.8,39.8,30.24,NNW,338,5.0,6.0,71,0.00,,SKC,0.00,VWS V14.01,2013-02-02 09:41:00,
2013-02-02 04:46:00,48.6,39.6,30.24,NNE,21,2.0,6.0,71,0.00,,SKC,0.00,VWS V14.01,2013-02-02 09:46:00,
2013-02-02 04:51:00,48.4,39.4,30.24,North,360,2.0,6.0,71,0.00,,SKC,0.00,VWS V14.01,2013-02-02 09:51:00,
2013-02-02 04:56:00,48.5,39.9,30.24,NNW,336,3.0,6.0,72,0.00,,SKC,0.00,VWS V14.01,2013-02-02 09:56:00,
2013-02-02 05:01:00,48.9,39.9,30.24,NNE,27,5.0,5.0,71,0.00,,SKC,0.00,VWS V14.01,2013-02-02 10:01:00,
2013-02-02 05:06:00,49.2,40.2,30.24,North,360,8.0,8.0,71,0.00,,SKC,0.00,VWS V14.01,2013-02-02 10:06:00,
2013-02-02 05:11:00,49.5,40.5,30.24,NNE,29,5.0,8.0,71,0.00,,SKC,0.00,VWS V14.01,2013-02-02 10:11:00,
2013-02-02 05:16:00,49.7,40.7,30.24,NW,322,4.0,8.0,71,0.00,,SKC,0.00,VWS V14.01,2013-02-02 10:16:00,
2013-02-02 05:21:00,49.7,40.7,30.24,North,351,2.0,8.0,71,0.00,,SKC,0.00,VWS V14.01,2013-02-02 10:21:00,
2013-02-02 05:26:00,49.5,40.5,30.24,NNE,12,2.0,8.0,71,0.00,,SKC,0.00,VWS V14.01,2013-02-02 10:26:00,
2013-02-02 05:31:00,49.3,40.7,30.24,NNE,13,1.0,1.0,72,0.00,,SKC,0.00,VWS V14.01,2013-02-02 10:31:00,
2013-02-02 05:36:00,49.3,40.7,30.24,NE,44,1.0,6.0,72,0.00,,SKC,0.00,VWS V14.01,2013-02-02 10:36:00,
2013-02-02 05:41:00,49.1,40.5,30.24,NE,40,1.0,6.0,72,0.00,,SKC,0.00,VWS V14.01,2013-02-02 10:41:00,
2013-02-02 05:46:00,49.2,40.6,30.24,NNE,33,4.0,6.0,72,0.00,,SKC,0.00,VWS V14.01,2013-02-02 10:46:00,
2013-02-02 05:51:00,49.2,40.2,30.24,NNE,32,5.0,7.0,71,0.00,,SKC,0.00,VWS V14.01,2013-02-02 10:51:00,
2013-02-02 05:56:00,49.3,40.3,30.24,NE,47,5.0,7.0,71,0.00,,SKC,0.00,VWS V14.01,2013-02-02 10:56:00,
2013-02-02 06:01:00,49.4,40.0,30.25,NNE,26,4.0,8.0,70,0.00,,SKC,0.00,VWS V14.01,2013-02-02 11:01:00,
2013-02-02 06:06:00,49.4,40.0,30.25,NNW,330,7.0,9.0,70,0.00,,SKC,0.00,VWS V14.01,2013-02-02 11:06:00,
2013-02-02 06:11:00,49.4,40.0,30.25,NNE,26,6.0,9.0,70,0.00,,SKC,0.00,VWS V14.01,2013-02-02 11:11:00,
2013-02-02 06:16:00,49.4,40.4,30.25,NNW,340,7.0,10.0,71,0.00,,SKC,0.00,VWS V14.01,2013-02-02 11:16:00,
2013-02-02 06:21:00,49.3,40.3,30.25,NE,34,6.0,10.0,71,0.00,,SKC,0.00,VWS V14.01,2013-02-02 11:21:00,
2013-02-02 06:26:00,49.2,40.2,30.25,NNE,28,13.0,13.0,71,0.00,,SKC,0.00,VWS V14.01,2013-02-02 11:26:00,
2013-02-02 06:31:00,49.2,40.2,30.25,NE,45,5.0,7.0,71,0.00,,SKC,0.00,VWS V14.01,2013-02-02 11:31:00,
2013-02-02 06:36:00,49.1,40.5,30.26,NE,44,5.0,11.0,72,0.00,,SKC,0.00,VWS V14.01,2013-02-02 11:36:00,
2013-02-02 06:41:00,49.1,40.5,30.26,NNW,329,6.0,11.0,72,0.00,,SKC,0.00,VWS V14.01,2013-02-02 11:41:00,
2013-02-02 06:46:00,49.0,40.4,30.26,NNW,329,5.0,11.0,72,0.00,,SKC,0.00,VWS V14.01,2013-02-02 11:46:00,
2013-02-02 06:51:00,49.1,40.5,30.26,NNE,21,4.0,11.0,72,0.00,,SKC,0.00,VWS V14.01,2013-02-02 11:51:00,
2013-02-02 06:56:00,49.2,40.6,30.26,NNW,336,4.0,11.0,72,0.00,,SKC,0.00,VWS V14.01,2013-02-02 11:56:00,
2013-02-02 07:01:00,49.0,40.4,30.26,NE,35,5.0,5.0,72,0.00,,SKC,0.00,VWS V14.01,2013-02-02 12:01:00,
2013-02-02 07:06:00,48.8,40.5,30.26,NNE,24,2.0,7.0,73,0.00,,SKC,0.00,VWS V14.01,2013-02-02 12:06:00,
2013-02-02 07:11:00,48.7,40.8,30.26,NE,48,7.0,8.0,74,0.00,,SKC,0.00,VWS V14.01,2013-02-02 12:11:00,
2013-02-02 07:16:00,48.6,40.7,30.26,NNE,23,8.0,8.0,74,0.00,,SKC,0.00,VWS V14.01,2013-02-02 12:16:00,
2013-02-02 07:21:00,48.6,40.7,30.26,ENE,59,5.0,8.0,74,0.00,,SKC,0.00,VWS V14.01,2013-02-02 12:21:00,
2013-02-02 07:26:00,48.8,40.5,30.26,NE,45,6.0,10.0,73,0.00,,SKC,0.00,VWS V14.01,2013-02-02 12:26:00,
2013-02-02 07:31:00,49.1,40.8,30.26,NNW,346,4.0,8.0,73,0.00,,SKC,0.00,VWS V14.01,2013-02-02 12:31:00,
2013-02-02 07:36:00,49.4,40.8,30.26,NNE,17,3.0,10.0,72,0.00,,SKC,0.00,VWS V14.01,2013-02-02 12:36:00,
2013-02-02 07:41:00,49.6,41.0,30.27,ENE,61,5.0,10.0,72,0.00,,SKC,0.00,VWS V14.01,2013-02-02 12:41:00,
2013-02-02 07:46:00,49.8,41.2,30.27,NE,42,4.0,10.0,72,0.00,,SKC,0.00,VWS V14.01,2013-02-02 12:46:00,
2013-02-02 07:51:00,50.1,41.4,30.27,NE,51,6.0,10.0,72,0.00,,SKC,0.00,VWS V14.01,2013-02-02 12:51:00,
2013-02-02 07:56:00,50.4,41.4,30.27,NW,311,4.0,10.0,71,0.00,,SKC,0.00,VWS V14.01,2013-02-02 12:56:00,
2013-02-02 08:01:00,50.8,41.8,30.27,NNW,332,4.0,8.0,71,0.00,,SKC,0.00,VWS V14.01,2013-02-02 13:01:00,
2013-02-02 08:06:00,51.1,41.7,30.27,NW,315,2.0,8.0,70,0.00,,SKC,0.00,VWS V14.01,2013-02-02 13:06:00,
2013-02-02 08:11:00,51.5,42.0,30.27,NNE,15,6.0,8.0,70,0.00,,SKC,0.00,VWS V14.01,2013-02-02 13:11:00,
2013-02-02 08:16:00,52.0,42.5,30.27,NE,46,2.0,8.0,70,0.00,,SKC,0.00,VWS V14.01,2013-02-02 13:16:00,
2013-02-02 08:21:00,52.4,42.2,30.27,NNE,19,3.0,11.0,68,0.00,,SKC,0.00,VWS V14.01,2013-02-02 13:21:00,
2013-02-02 08:26:00,52.8,42.5,30.27,NE,44,4.0,11.0,68,0.00,,SKC,0.00,VWS V14.01,2013-02-02 13:26:00,
2013-02-02 08:31:00,53.3,43.0,30.27,NE,49,6.0,7.0,68,0.00,,SKC,0.00,VWS V14.01,2013-02-02 13:31:00,
2013-02-02 08:36:00,53.7,43.0,30.26,NNE,18,5.0,11.0,67,0.00,,SKC,0.00,VWS V14.01,2013-02-02 13:36:00,
2013-02-02 08:41:00,54.1,43.0,30.26,NNE,26,5.0,11.0,66,0.00,,SKC,0.00,VWS V14.01,2013-02-02 13:41:00,
2013-02-02 08:46:00,54.7,43.2,30.27,NE,51,9.0,11.0,65,0.00,,SKC,0.00,VWS V14.01,2013-02-02 13:46:00,
2013-02-02 08:51:00,55.2,43.2,30.27,NE,34,6.0,12.0,64,0.00,,SKC,0.00,VWS V14.01,2013-02-02 13:51:00,
2013-02-02 08:56:00,55.7,43.7,30.27,NNE,23,5.0,12.0,64,0.00,,SKC,0.00,VWS V14.01,2013-02-02 13:56:00,
2013-02-02 09:01:00,56.3,43.9,30.27,NNE,21,7.0,8.0,63,0.00,,SKC,0.00,VWS V14.01,2013-02-02 14:01:00,
2013-02-02 09:06:00,56.9,44.0,30.27,NE,40,3.0,9.0,62,0.00,,SKC,0.00,VWS V14.01,2013-02-02 14:06:00,
2013-02-02 09:11:00,57.2,44.3,30.26,NE,46,6.0,10.0,62,0.00,,SKC,0.00,VWS V14.01,2013-02-02 14:11:00,
2013-02-02 09:16:00,57.7,44.4,30.26,ENE,68,5.0,10.0,61,0.00,,SKC,0.00,VWS V14.01,2013-02-02 14:16:00,
2013-02-02 09:21:00,58.0,44.6,30.27,ENE,65,10.0,10.0,61,0.00,,SKC,0.00,VWS V14.01,2013-02-02 14:21:00,
2013-02-02 09:26:00,58.5,44.2,30.27,NNE,26,7.0,13.0,59,0.00,,SKC,0.00,VWS V14.01,2013-02-02 14:26:00,
2013-02-02 09:31:00,58.9,44.6,30.26,NE,55,11.0,11.0,59,0.00,,SKC,0.00,VWS V14.01,2013-02-02 14:31:00,
2013-02-02 09:36:00,59.3,44.5,30.26,NNW,336,2.0,11.0,58,0.00,,SKC,0.00,VWS V14.01,2013-02-02 14:36:00,
2013-02-02 09:41:00,60.1,44.8,30.26,NNE,28,5.0,13.0,57,0.00,,SKC,0.00,VWS V14.01,2013-02-02 14:41:00,
2013-02-02 09:46:00,60.7,44.5,30.26,NNE,20,6.0,13.0,55,0.00,,SKC,0.00,VWS V14.01,2013-02-02 14:46:00,
2013-02-02 09:51:00,61.2,44.4,30.26,NNW,336,6.0,13.0,54,0.00,,SKC,0.00,VWS V14.01,2013-02-02 14:51:00,
2013-02-02 09:56:00,61.7,44.4,30.26,NE,35,7.0,13.0,53,0.00,,SKC,0.00,VWS V14.01,2013-02-02 14:56:00,
2013-02-02 10:01:00,62.3,44.5,30.26,NNW,340,6.0,9.0,52,0.00,,SKC,0.00,VWS V14.01,2013-02-02 15:01:00,
2013-02-02 10:06:00,62.9,43.5,30.26,NE,55,5.0,12.0,49,0.00,,SKC,0.00,VWS V14.01,2013-02-02 15:06:00,
2013-02-02 10:11:00,63.4,43.4,30.26,ENE,59,10.0,13.0,48,0.00,,SKC,0.00,VWS V14.01,2013-02-02 15:11:00,
2013-02-02 10:16:00,63.4,42.3,30.26,NE,44,9.0,15.0,46,0.00,,SKC,0.00,VWS V14.01,2013-02-02 15:16:00,
2013-02-02 10:21:00,63.9,42.7,30.26,NNE,16,4.0,15.0,46,0.00,,SKC,0.00,VWS V14.01,2013-02-02 15:21:00,
2013-02-02 10:26:00,64.2,42.4,30.26,NW,309,6.0,15.0,45,0.00,,SKC,0.00,VWS V14.01,2013-02-02 15:26:00,
2013-02-02 10:31:00,64.6,42.2,30.26,NNW,341,9.0,10.0,44,0.00,,SKC,0.00,VWS V14.01,2013-02-02 15:31:00,
2013-02-02 10:36:00,64.9,42.5,30.25,NNE,22,4.0,11.0,44,0.00,,SKC,0.00,VWS V14.01,2013-02-02 15:36:00,
2013-02-02 10:41:00,65.3,42.8,30.25,NNE,26,6.0,11.0,44,0.00,,SKC,0.00,VWS V14.01,2013-02-02 15:41:00,
2013-02-02 10:46:00,66.0,42.9,30.25,NE,44,9.0,11.0,43,0.00,,SKC,0.00,VWS V14.01,2013-02-02 15:46:00,
2013-02-02 10:51:00,66.7,43.5,30.25,NE,42,10.0,11.0,43,0.00,,SKC,0.00,VWS V14.01,2013-02-02 15:51:00,
2013-02-02 10:56:00,67.3,44.7,30.24,NE,49,5.0,11.0,44,0.00,,SKC,0.00,VWS V14.01,2013-02-02 15:56:00,
2013-02-02 11:01:00,67.3,42.8,30.24,NE,55,3.0,11.0,41,0.00,,SKC,0.00,VWS V14.01,2013-02-02 16:01:00,
2013-02-02 11:06:00,67.7,43.2,30.24,NE,44,8.0,15.0,41,0.00,,SKC,0.00,VWS V14.01,2013-02-02 16:06:00,
2013-02-02 11:11:00,68.4,44.4,30.24,North,349,5.0,15.0,42,0.00,,SKC,0.00,VWS V14.01,2013-02-02 16:11:00,
2013-02-02 11:16:00,68.4,42.5,30.24,NE,44,8.0,15.0,39,0.00,,SKC,0.00,VWS V14.01,2013-02-02 16:16:00,
2013-02-02 11:21:00,68.3,43.7,30.24,NNE,21,14.0,16.0,41,0.00,,SKC,0.00,VWS V14.01,2013-02-02 16:21:00,
2013-02-02 11:26:00,68.6,44.0,30.23,NW,321,5.0,16.0,41,0.00,,SKC,0.00,VWS V14.01,2013-02-02 16:26:00,
2013-02-02 11:31:00,69.4,44.7,30.23,North,349,5.0,6.0,41,0.00,,SKC,0.00,VWS V14.01,2013-02-02 16:31:00,
2013-02-02 11:36:00,69.4,44.7,30.23,NNE,28,9.0,13.0,41,0.00,,SKC,0.00,VWS V14.01,2013-02-02 16:36:00,
2013-02-02 11:41:00,69.7,45.6,30.22,NE,47,11.0,13.0,42,0.00,,SKC,0.00,VWS V14.01,2013-02-02 16:41:00,
2013-02-02 11:46:00,69.9,45.2,30.22,ENE,76,4.0,13.0,41,0.00,,SKC,0.00,VWS V14.01,2013-02-02 16:46:00,
2013-02-02 11:51:00,70.4,45.6,30.22,North,355,5.0,13.0,41,0.00,,SKC,0.00,VWS V14.01,2013-02-02 16:51:00,
2013-02-02 11:56:00,70.4,46.2,30.21,NE,49,1.0,13.0,42,0.00,,SKC,0.00,VWS V14.01,2013-02-02 16:56:00,
2013-02-02 12:01:00,71.0,46.8,30.21,East,83,4.0,4.0,42,0.00,,SKC,0.00,VWS V14.01,2013-02-02 17:01:00,
2013-02-02 12:06:00,71.1,46.2,30.21,SE,134,3.0,11.0,41,0.00,,SKC,0.00,VWS V14.01,2013-02-02 17:06:00,
2013-02-02 12:11:00,71.7,46.8,30.21,ESE,111,2.0,13.0,41,0.00,,SKC,0.00,VWS V14.01,2013-02-02 17:11:00,
2013-02-02 12:16:00,72.2,47.2,30.20,ESE,102,7.0,13.0,41,0.00,,SKC,0.00,VWS V14.01,2013-02-02 17:16:00,
2013-02-02 12:21:00,72.0,47.0,30.20,NE,49,8.0,13.0,41,0.00,,SKC,0.00,VWS V14.01,2013-02-02 17:21:00,
2013-02-02 12:26:00,72.1,48.4,30.20,East,83,7.0,13.0,43,0.00,,SKC,0.00,VWS V14.01,2013-02-02 17:26:00,
2013-02-02 12:31:00,72.6,48.8,30.20,East,94,9.0,14.0,43,0.00,,SKC,0.00,VWS V14.01,2013-02-02 17:31:00,
2013-02-02 12:36:00,72.4,48.7,30.19,ESE,123,6.0,14.0,43,0.00,,SKC,0.00,VWS V14.01,2013-02-02 17:36:00,
2013-02-02 12:41:00,73.1,49.3,30.19,East,98,4.0,14.0,43,0.00,,SKC,0.00,VWS V14.01,2013-02-02 17:41:00,
2013-02-02 12:46:00,73.4,49.6,30.19,East,80,8.0,14.0,43,0.00,,SKC,0.00,VWS V14.01,2013-02-02 17:46:00,
2013-02-02 12:51:00,72.9,49.7,30.19,ENE,75,9.0,14.0,44,0.00,,SKC,0.00,VWS V14.01,2013-02-02 17:51:00,
2013-02-02 12:56:00,72.7,48.3,30.18,NE,48,8.0,14.0,42,0.00,,SKC,0.00,VWS V14.01,2013-02-02 17:56:00,
2013-02-02 13:01:00,73.0,48.6,30.18,East,81,9.0,13.0,42,0.00,,SKC,0.00,VWS V14.01,2013-02-02 18:01:00,
2013-02-02 13:06:00,73.3,48.8,30.18,SSE,164,5.0,13.0,42,0.00,,SKC,0.00,VWS V14.01,2013-02-02 18:06:00,
2013-02-02 13:11:00,73.3,48.8,30.17,SE,130,4.0,13.0,42,0.00,,SKC,0.00,VWS V14.01,2013-02-02 18:11:00,
2013-02-02 13:16:00,73.7,49.2,30.17,East,98,8.0,13.0,42,0.00,,SKC,0.00,VWS V14.01,2013-02-02 18:16:00,
2013-02-02 13:21:00,73.4,48.3,30.17,ESE,121,10.0,13.0,41,0.00,,SKC,0.00,VWS V14.01,2013-02-02 18:21:00,
2013-02-02 13:26:00,73.3,48.2,30.17,ENE,78,5.0,13.0,41,0.00,,SKC,0.00,VWS V14.01,2013-02-02 18:26:00,
2013-02-02 13:31:00,73.4,48.9,30.16,ESE,110,8.0,8.0,42,0.00,,SKC,0.00,VWS V14.01,2013-02-02 18:31:00,
2013-02-02 13:36:00,73.2,49.4,30.16,ENE,61,7.0,10.0,43,0.00,,SKC,0.00,VWS V14.01,2013-02-02 18:36:00,
2013-02-02 13:41:00,73.7,48.6,30.16,WNW,287,3.0,10.0,41,0.00,,SKC,0.00,VWS V14.01,2013-02-02 18:41:00,
2013-02-02 13:46:00,74.6,50.0,30.16,NNW,336,4.0,10.0,42,0.00,,SKC,0.00,VWS V14.01,2013-02-02 18:46:00,
2013-02-02 13:51:00,74.5,48.6,30.16,ENE,61,5.0,10.0,40,0.00,,SKC,0.00,VWS V14.01,2013-02-02 18:51:00,
2013-02-02 13:56:00,74.2,49.0,30.16,ENE,76,7.0,10.0,41,0.00,,SKC,0.00,VWS V14.01,2013-02-02 18:56:00,
2013-02-02 14:01:00,74.2,47.7,30.15,East,89,1.0,2.0,39,0.00,,SKC,0.00,VWS V14.01,2013-02-02 19:01:00,
2013-02-02 14:06:00,74.3,48.4,30.15,East,81,1.0,9.0,40,0.00,,SKC,0.00,VWS V14.01,2013-02-02 19:06:00,
2013-02-02 14:11:00,75.1,49.2,30.15,NE,40,9.0,9.0,40,0.00,,SKC,0.00,VWS V14.01,2013-02-02 19:11:00,
2013-02-02 14:16:00,74.8,49.5,30.15,NE,38,1.0,9.0,41,0.00,,SKC,0.00,VWS V14.01,2013-02-02 19:16:00,
2013-02-02 14:21:00,74.9,49.6,30.15,NE,49,6.0,10.0,41,0.00,,SKC,0.00,VWS V14.01,2013-02-02 19:21:00,
2013-02-02 14:26:00,74.4,49.8,30.14,NW,326,4.0,10.0,42,0.00,,SKC,0.00,VWS V14.01,2013-02-02 19:26:00,
2013-02-02 14:31:00,74.7,50.1,30.14,NNE,30,5.0,11.0,42,0.00,,SKC,0.00,VWS V14.01,2013-02-02 19:31:00,
2013-02-02 14:36:00,74.8,49.5,30.14,SE,130,5.0,11.0,41,0.00,,SKC,0.00,VWS V14.01,2013-02-02 19:36:00,
2013-02-02 14:41:00,75.0,48.4,30.14,ENE,74,7.0,11.0,39,0.00,,SKC,0.00,VWS V14.01,2013-02-02 19:41:00,
2013-02-02 14:46:00,74.7,48.1,30.13,NNW,344,6.0,11.0,39,0.00,,SKC,0.00,VWS V14.01,2013-02-02 19:46:00,
2013-02-02 14:51:00,74.6,48.0,30.13,NE,53,5.0,11.0,39,0.00,,SKC,0.00,VWS V14.01,2013-02-02 19:51:00,
2013-02-02 14:56:00,74.9,48.3,30.13,West,279,2.0,11.0,39,0.00,,SKC,0.00,VWS V14.01,2013-02-02 19:56:00,
2013-02-02 15:01:00,75.1,49.2,30.13,ENE,57,4.0,9.0,40,0.00,,SKC,0.00,VWS V14.01,2013-02-02 20:01:00,
2013-02-02 15:06:00,75.5,48.8,30.13,SE,130,7.0,9.0,39,0.00,,SKC,0.00,VWS V14.01,2013-02-02 20:06:00,
2013-02-02 15:11:00,75.3,48.0,30.13,East,94,0.0,9.0,38,0.00,,SKC,0.00,VWS V14.01,2013-02-02 20:11:00,
2013-02-02 15:16:00,76.5,49.7,30.13,NE,44,1.0,9.0,39,0.00,,SKC,0.00,VWS V14.01,2013-02-02 20:16:00,
2013-02-02 15:21:00,77.3,49.0,30.13,East,101,6.0,9.0,37,0.00,,SKC,0.00,VWS V14.01,2013-02-02 20:21:00,
2013-02-02 15:26:00,76.5,49.0,30.12,NNW,338,6.0,9.0,38,0.00,,SKC,0.00,VWS V14.01,2013-02-02 20:26:00,
2013-02-02 15:31:00,75.5,48.1,30.12,NW,326,5.0,8.0,38,0.00,,SKC,0.00,VWS V14.01,2013-02-02 20:31:00,
2013-02-02 15:36:00,75.4,49.4,30.12,WNW,288,0.0,8.0,40,0.00,,SKC,0.00,VWS V14.01,2013-02-02 20:36:00,
2013-02-02 15:41:00,75.8,49.1,30.12,NNW,336,5.0,8.0,39,0.00,,SKC,0.00,VWS V14.01,2013-02-02 20:41:00,
2013-02-02 15:46:00,75.8,48.4,30.12,NNE,32,4.0,8.0,38,0.00,,SKC,0.00,VWS V14.01,2013-02-02 20:46:00,
2013-02-02 15:51:00,75.3,49.3,30.12,East,87,1.0,9.0,40,0.00,,SKC,0.00,VWS V14.01,2013-02-02 20:51:00,
2013-02-02 15:56:00,75.8,49.1,30.11,SSW,192,0.0,9.0,39,0.00,,SKC,0.00,VWS V14.01,2013-02-02 20:56:00,
2013-02-02 16:01:00,76.1,49.4,30.11,East,82,6.0,6.0,39,0.00,,SKC,0.00,VWS V14.01,2013-02-02 21:01:00,
2013-02-02 16:06:00,76.1,48.7,30.11,ESE,111,4.0,6.0,38,0.00,,SKC,0.00,VWS V14.01,2013-02-02 21:06:00,
2013-02-02 16:11:00,75.9,48.5,30.11,ENE,65,1.0,6.0,38,0.00,,SKC,0.00,VWS V14.01,2013-02-02 21:11:00,
2013-02-02 16:16:00,75.8,48.4,30.11,NE,36,4.0,8.0,38,0.00,,SKC,0.00,VWS V14.01,2013-02-02 21:16:00,
2013-02-02 16:21:00,75.1,49.2,30.11,NE,40,1.0,8.0,40,0.00,,SKC,0.00,VWS V14.01,2013-02-02 21:21:00,
2013-02-02 16:26:00,75.0,48.4,30.11,NE,40,2.0,8.0,39,0.00,,SKC,0.00,VWS V14.01,2013-02-02 21:26:00,
2013-02-02 16:31:00,75.2,48.6,30.11,ESE,119,2.0,5.0,39,0.00,,SKC,0.00,VWS V14.01,2013-02-02 21:31:00,
2013-02-02 16:36:00,75.7,48.3,30.11,ENE,64,0.0,6.0,38,0.00,,SKC,0.00,VWS V14.01,2013-02-02 21:36:00,
2013-02-02 16:41:00,75.8,47.7,30.11,ESE,108,4.0,6.0,37,0.00,,SKC,0.00,VWS V14.01,2013-02-02 21:41:00,
2013-02-02 16:46:00,75.6,48.2,30.11,ESE,104,1.0,6.0,38,0.00,,SKC,0.00,VWS V14.01,2013-02-02 21:46:00,
2013-02-02 16:51:00,75.5,48.1,30.11,East,94,1.0,6.0,38,0.00,,SKC,0.00,VWS V14.01,2013-02-02 21:51:00,
2013-02-02 16:56:00,75.8,49.1,30.11,ENE,64,7.0,7.0,39,0.00,,SKC,0.00,VWS V14.01,2013-02-02 21:56:00,
2013-02-02 17:01:00,75.5,48.8,30.11,East,83,4.0,6.0,39,0.00,,SKC,0.00,VWS V14.01,2013-02-02 22:01:00,
2013-02-02 17:06:00,75.0,48.4,30.11,East,85,0.0,8.0,39,0.00,,SKC,0.00,VWS V14.01,2013-02-02 22:06:00,
2013-02-02 17:11:00,75.5,48.8,30.11,East,98,2.0,8.0,39,0.00,,SKC,0.00,VWS V14.01,2013-02-02 22:11:00,
2013-02-02 17:16:00,75.6,48.2,30.11,East,82,1.0,8.0,38,0.00,,SKC,0.00,VWS V14.01,2013-02-02 22:16:00,
2013-02-02 17:21:00,75.8,48.4,30.11,NNE,26,1.0,8.0,38,0.00,,SKC,0.00,VWS V14.01,2013-02-02 22:21:00,
2013-02-02 17:26:00,74.9,48.3,30.11,North,355,3.0,8.0,39,0.00,,SKC,0.00,VWS V14.01,2013-02-02 22:26:00,
2013-02-02 17:31:00,74.1,48.3,30.11,ENE,59,0.0,1.0,40,0.00,,SKC,0.00,VWS V14.01,2013-02-02 22:31:00,
2013-02-02 17:36:00,74.2,48.3,30.11,NNE,19,0.0,1.0,40,0.00,,SKC,0.00,VWS V14.01,2013-02-02 22:36:00,
2013-02-02 17:41:00,73.9,48.1,30.11,NW,325,2.0,4.0,40,0.00,,SKC,0.00,VWS V14.01,2013-02-02 22:41:00,
2013-02-02 17:46:00,73.5,49.0,30.11,NNW,344,0.0,4.0,42,0.00,,SKC,0.00,VWS V14.01,2013-02-02 22:46:00,
2013-02-02 17:51:00,73.5,49.7,30.11,NNW,344,0.0,4.0,43,0.00,,SKC,0.00,VWS V14.01,2013-02-02 22:51:00,
2013-02-02 17:56:00,74.2,50.3,30.11,West,263,1.0,4.0,43,0.00,,SKC,0.00,VWS V14.01,2013-02-02 22:56:00,
2013-02-02 18:01:00,73.0,50.4,30.11,WSW,252,1.0,1.0,45,0.00,,SKC,0.00,VWS V14.01,2013-02-02 23:01:00,
2013-02-02 18:06:00,72.2,50.9,30.11,West,263,0.0,1.0,47,0.00,,SKC,0.00,VWS V14.01,2013-02-02 23:06:00,
2013-02-02 18:11:00,71.3,50.0,30.11,WSW,254,1.0,2.0,47,0.00,,SKC,0.00,VWS V14.01,2013-02-02 23:11:00,
2013-02-02 18:16:00,70.4,50.3,30.11,WSW,257,0.0,2.0,49,0.00,,SKC,0.00,VWS V14.01,2013-02-02 23:16:00,
2013-02-02 18:21:00,69.8,49.8,30.11,West,269,0.0,2.0,49,0.00,,SKC,0.00,VWS V14.01,2013-02-02 23:21:00,
2013-02-02 18:26:00,69.4,50.0,30.12,WSW,249,1.0,2.0,50,0.00,,SKC,0.00,VWS V14.01,2013-02-02 23:26:00,
2013-02-02 18:31:00,68.9,49.0,30.12,WNW,299,1.0,1.0,49,0.00,,SKC,0.00,VWS V14.01,2013-02-02 23:31:00,
2013-02-02 18:36:00,68.7,49.3,30.12,West,269,1.0,2.0,50,0.00,,SKC,0.00,VWS V14.01,2013-02-02 23:36:00,
2013-02-02 18:41:00,68.3,49.0,30.12,West,271,0.0,2.0,50,0.00,,SKC,0.00,VWS V14.01,2013-02-02 23:41:00,
2013-02-02 18:46:00,68.1,49.3,30.12,West,271,0.0,2.0,51,0.00,,SKC,0.00,VWS V14.01,2013-02-02 23:46:00,
2013-02-02 18:51:00,67.7,50.0,30.12,West,271,0.0,2.0,53,0.00,,SKC,0.00,VWS V14.01,2013-02-02 23:51:00,
2013-02-02 18:56:00,66.7,49.0,30.13,West,273,1.0,3.0,53,0.00,,SKC,0.00,VWS V14.01,2013-02-02 23:56:00,
2013-02-02 19:01:00,66.4,48.8,30.13,West,277,1.0,4.0,53,0.00,,SKC,0.00,VWS V14.01,2013-02-03 00:01:00,
2013-02-02 19:06:00,66.3,48.7,30.13,WNW,287,0.0,4.0,53,0.00,,SKC,0.00,VWS V14.01,2013-02-03 00:06:00,
2013-02-02 19:11:00,66.0,48.9,30.13,WNW,287,0.0,4.0,54,0.00,,SKC,0.00,VWS V14.01,2013-02-03 00:11:00,
2013-02-02 19:16:00,65.5,49.4,30.13,WNW,287,0.0,4.0,56,0.00,,SKC,0.00,VWS V14.01,2013-02-03 00:16:00,
2013-02-02 19:21:00,65.1,50.0,30.13,WNW,287,0.0,4.0,58,0.00,,SKC,0.00,VWS V14.01,2013-02-03 00:21:00,
2013-02-02 19:26:00,64.4,50.2,30.14,WNW,286,0.0,4.0,60,0.00,,SKC,0.00,VWS V14.01,2013-02-03 00:26:00,
2013-02-02 19:31:00,63.8,51.0,30.14,WNW,287,0.0,0.0,63,0.00,,SKC,0.00,VWS V14.01,2013-02-03 00:31:00,
2013-02-02 19:36:00,63.3,51.3,30.14,WNW,286,0.0,0.0,65,0.00,,SKC,0.00,VWS V14.01,2013-02-03 00:36:00,
2013-02-02 19:41:00,62.4,51.7,30.14,WNW,287,0.0,0.0,68,0.00,,SKC,0.00,VWS V14.01,2013-02-03 00:41:00,
2013-02-02 19:46:00,61.7,51.0,30.14,WNW,287,0.0,0.0,68,0.00,,SKC,0.00,VWS V14.01,2013-02-03 00:46:00,
2013-02-02 19:51:00,61.3,51.1,30.14,WNW,286,0.0,0.0,69,0.00,,SKC,0.00,VWS V14.01,2013-02-03 00:51:00,
2013-02-02 19:56:00,60.8,51.0,30.14,WNW,287,0.0,0.0,70,0.00,,SKC,0.00,VWS V14.01,2013-02-03 00:56:00,
2013-02-02 20:01:00,60.3,50.5,30.15,WNW,287,0.0,0.0,70,0.00,,SKC,0.00,VWS V14.01,2013-02-03 01:01:00,
2013-02-02 20:06:00,60.3,50.5,30.15,WNW,286,0.0,0.0,70,0.00,,SKC,0.00,VWS V14.01,2013-02-03 01:06:00,
2013-02-02 20:11:00,60.5,50.3,30.15,WNW,287,0.0,0.0,69,0.00,,SKC,0.00,VWS V14.01,2013-02-03 01:11:00,
2013-02-02 20:16:00,60.3,50.5,30.15,WNW,287,0.0,0.0,70,0.00,,SKC,0.00,VWS V14.01,2013-02-03 01:16:00,
2013-02-02 20:21:00,59.9,50.5,30.15,WNW,287,0.0,0.0,71,0.00,,SKC,0.00,VWS V14.01,2013-02-03 01:21:00,
2013-02-02 20:26:00,59.6,50.2,30.15,WNW,287,0.0,0.0,71,0.00,,SKC,0.00,VWS V14.01,2013-02-03 01:26:00,
2013-02-02 20:31:00,59.5,50.5,30.15,WNW,286,0.0,0.0,72,0.00,,SKC,0.00,VWS V14.01,2013-02-03 01:31:00,
2013-02-02 20:36:00,59.4,50.4,30.15,WNW,287,0.0,0.0,72,0.00,,SKC,0.00,VWS V14.01,2013-02-03 01:36:00,
2013-02-02 20:41:00,59.1,50.1,30.15,WNW,287,0.0,0.0,72,0.00,,SKC,0.00,VWS V14.01,2013-02-03 01:41:00,
2013-02-02 20:46:00,59.0,50.4,30.16,WNW,287,0.0,0.0,73,0.00,,SKC,0.00,VWS V14.01,2013-02-03 01:46:00,
2013-02-02 20:51:00,58.7,50.5,30.16,WNW,287,0.0,0.0,74,0.00,,SKC,0.00,VWS V14.01,2013-02-03 01:51:00,
2013-02-02 20:56:00,58.4,50.2,30.16,WNW,286,0.0,0.0,74,0.00,,SKC,0.00,VWS V14.01,2013-02-03 01:56:00,
2013-02-02 21:01:00,58.0,50.1,30.16,WNW,286,0.0,0.0,75,0.00,,SKC,0.00,VWS V14.01,2013-02-03 02:01:00,
2013-02-02 21:06:00,57.8,50.3,30.16,WNW,287,0.0,0.0,76,0.00,,SKC,0.00,VWS V14.01,2013-02-03 02:06:00,
2013-02-02 21:11:00,57.4,50.3,30.16,WNW,287,0.0,0.0,77,0.00,,SKC,0.00,VWS V14.01,2013-02-03 02:11:00,
2013-02-02 21:16:00,57.0,50.2,30.16,WNW,287,0.0,0.0,78,0.00,,SKC,0.00,VWS V14.01,2013-02-03 02:16:00,
2013-02-02 21:20:00,56.7,49.9,30.16,WNW,287,0.0,0.0,78,0.00,,SKC,0.00,VWS V14.01,2013-02-03 02:20:00,
2013-02-02 21:25:00,56.3,49.9,30.16,WNW,287,0.0,0.0,79,0.00,,SKC,0.00,VWS V14.01,2013-02-03 02:25:00,
2013-02-02 21:30:00,56.2,50.1,30.16,WNW,287,0.0,0.0,80,0.00,,SKC,0.00,VWS V14.01,2013-02-03 02:30:00,
2013-02-02 21:35:00,55.9,50.2,30.16,WNW,287,0.0,0.0,81,0.00,,SKC,0.00,VWS V14.01,2013-02-03 02:35:00,
2013-02-02 21:40:00,55.9,50.5,30.16,WNW,287,0.0,0.0,82,0.00,,SKC,0.00,VWS V14.01,2013-02-03 02:40:00,
2013-02-02 21:45:00,55.9,50.8,30.16,WNW,287,0.0,0.0,83,0.00,,SKC,0.00,VWS V14.01,2013-02-03 02:45:00,
2013-02-02 21:50:00,55.7,50.6,30.16,WNW,287,0.0,0.0,83,0.00,,SKC,0.00,VWS V14.01,2013-02-03 02:50:00,
2013-02-02 21:55:00,55.8,51.0,30.15,WNW,287,0.0,0.0,84,0.00,,SKC,0.00,VWS V14.01,2013-02-03 02:55:00,
2013-02-02 22:00:00,55.6,50.5,30.15,WNW,287,0.0,0.0,83,0.00,,SKC,0.00,VWS V14.01,2013-02-03 03:00:00,
2013-02-02 22:05:00,55.2,50.1,30.15,WNW,287,0.0,0.0,83,0.00,,SKC,0.00,VWS V14.01,2013-02-03 03:05:00,
2013-02-02 22:10:00,55.0,50.3,30.15,ENE,65,0.0,0.0,84,0.00,,SKC,0.00,VWS V14.01,2013-02-03 03:10:00,
2013-02-02 22:15:00,55.0,50.6,30.15,ENE,65,0.0,0.0,85,0.00,,SKC,0.00,VWS V14.01,2013-02-03 03:15:00,
2013-02-02 22:20:00,54.9,50.5,30.15,ENE,65,0.0,0.0,85,0.00,,SKC,0.00,VWS V14.01,2013-02-03 03:20:00,
2013-02-02 22:25:00,54.5,50.1,30.15,ENE,65,0.0,0.0,85,0.00,,SKC,0.00,VWS V14.01,2013-02-03 03:25:00,
2013-02-02 22:30:00,54.3,50.2,30.15,ENE,66,0.0,0.0,86,0.00,,SKC,0.00,VWS V14.01,2013-02-03 03:30:00,
2013-02-02 22:35:00,54.2,50.1,30.15,ENE,65,0.0,0.0,86,0.00,,SKC,0.00,VWS V14.01,2013-02-03 03:35:00,
2013-02-02 22:40:00,54.2,50.4,30.14,ENE,66,0.0,0.0,87,0.00,,SKC,0.00,VWS V14.01,2013-02-03 03:40:00,
2013-02-02 22:45:00,54.1,50.3,30.14,ENE,65,0.0,0.0,87,0.00,,SKC,0.00,VWS V14.01,2013-02-03 03:45:00,
2013-02-02 22:50:00,54.7,51.2,30.14,ENE,65,0.0,0.0,88,0.00,,SKC,0.00,VWS V14.01,2013-02-03 03:50:00,
2013-02-02 22:55:00,54.7,51.2,30.14,ENE,65,0.0,0.0,88,0.00,,SKC,0.00,VWS V14.01,2013-02-03 03:55:00,
2013-02-02 23:00:00,54.5,50.7,30.14,ENE,65,0.0,0.0,87,0.00,,SKC,0.00,VWS V14.01,2013-02-03 04:00:00,
2013-02-02 23:05:00,54.6,50.8,30.14,ENE,66,0.0,0.0,87,0.00,,SKC,0.00,VWS V14.01,2013-02-03 04:05:00,
2013-02-02 23:10:00,54.7,50.6,30.14,NE,50,0.0,0.0,86,0.00,,SKC,0.00,VWS V14.01,2013-02-03 04:10:00,
2013-02-02 23:15:00,54.5,50.4,30.14,NE,50,0.0,0.0,86,0.00,,SKC,0.00,VWS V14.01,2013-02-03 04:15:00,
2013-02-02 23:20:00,54.5,50.7,30.14,NE,50,0.0,0.0,87,0.00,,SKC,0.00,VWS V14.01,2013-02-03 04:20:00,
2013-02-02 23:25:00,54.4,50.6,30.14,NE,50,0.0,0.0,87,0.00,,SKC,0.00,VWS V14.01,2013-02-03 04:25:00,
2013-02-02 23:30:00,54.6,50.8,30.14,NNE,26,0.0,0.0,87,0.00,,SKC,0.00,VWS V14.01,2013-02-03 04:30:00,
2013-02-02 23:35:00,54.7,50.9,30.14,NNE,26,0.0,0.0,87,0.00,,SKC,0.00,VWS V14.01,2013-02-03 04:35:00,
2013-02-02 23:40:00,54.7,50.6,30.14,NNE,26,0.0,0.0,86,0.00,,SKC,0.00,VWS V14.01,2013-02-03 04:40:00,
2013-02-02 23:45:00,54.8,50.7,30.14,NNE,26,0.0,0.0,86,0.00,,SKC,0.00,VWS V14.01,2013-02-03 04:45:00,
2013-02-02 23:50:00,54.9,50.8,30.14,WSW,253,0.0,0.0,86,0.00,,SKC,0.00,VWS V14.01,2013-02-03 04:50:00,
2013-02-02 23:55:00,54.9,50.5,30.13,WSW,253,0.0,0.0,85,0.00,,SKC,0.00,VWS V14.01,2013-02-03 04:55:00,